Main page
METAR-TAF:

METAR-TAF

Airports :

Termez Airport

Termez, Uzbekistan

latitude: 37-14N, longitude: 067-16E, elevation: 302 m

Current weather observation

The report was made 37 minutes ago, at 22:00 UTC
Wind 4 kt from the East, varying between East and Southeast
Temperature 22°C
Humidity 38%
Pressure 1007 hPa
Visibility 10 km or more
no clouds below 1500 m and no cumulonimbus

METAR: UTST 052200Z 10004KT 080V140 CAVOK 22/07 Q1007 R25/CLRD70 NOSIG

Time: 03:37 (22:37 UTC)

Forecast

The report was made 5 hours and 37 minutes ago, at 17:00 UTC
Forecast valid from 05 at 18 UTC to 06 at 18 UTC
Wind 12 kt from the Southwest with gusts up to 22 kt
Visibility: 5000 m
haze
Temporary
from 05 at 18 UTC to 06 at 04 UTC
Wind 25 kt from the West/Southwest with gusts up to 35 kt
Visibility: 1500 m
Scattered clouds at a height of 6600 ft, Cumulonimbus.
Broken clouds at a height of 10000 ft

TAF: UTST 051700Z 0518/0618 23012G22KT 5000 HZ NSC TX37/0611Z TN22/0601Z TEMPO 0518/0604 25025G35KT 1500 DS SCT066CB BKN100

Weather observations and forecasts of more than 4000 airports (METAR and TAF reports).

The available stations are represented by yellow and red dots on the map.

Hover mouse over dot to see the name of the station.

Then click to see weather observations and forecasts.

To change the map : click on the green buttons with a black cross to zoom in, on the green button with a dash to zoom out, or on the green arrows for adjacent maps.


METAR-TAF: